sensor_id;sensor_type;location;lat;lon;timestamp;temperature;humidity
74869;DHT22;63419;42.262;12.210;2023-08-24T00:00:20;23.40;99.90
74869;DHT22;63419;42.262;12.210;2023-08-24T00:02:47;23.40;99.90
74869;DHT22;63419;42.262;12.210;2023-08-24T00:05:13;23.00;99.90
74869;DHT22;63419;42.262;12.210;2023-08-24T00:07:39;22.60;99.90
74869;DHT22;63419;42.262;12.210;2023-08-24T00:10:06;22.60;99.90
74869;DHT22;63419;42.262;12.210;2023-08-24T00:12:33;22.50;99.90
74869;DHT22;63419;42.262;12.210;2023-08-24T00:15:01;22.60;99.90
74869;DHT22;63419;42.262;12.210;2023-08-24T00:17:28;22.70;99.90
74869;DHT22;63419;42.262;12.210;2023-08-24T00:19:54;22.80;99.90
74869;DHT22;63419;42.262;12.210;2023-08-24T00:22:20;22.80;99.90
74869;DHT22;63419;42.262;12.210;2023-08-24T00:24:46;22.80;99.90
74869;DHT22;63419;42.262;12.210;2023-08-24T00:27:12;22.80;99.90
74869;DHT22;63419;42.262;12.210;2023-08-24T00:29:39;22.60;99.90
74869;DHT22;63419;42.262;12.210;2023-08-24T00:32:06;22.60;99.90
74869;DHT22;63419;42.262;12.210;2023-08-24T00:34:33;22.50;99.90
74869;DHT22;63419;42.262;12.210;2023-08-24T00:37:00;22.60;99.90
74869;DHT22;63419;42.262;12.210;2023-08-24T00:39:26;22.60;99.90
74869;DHT22;63419;42.262;12.210;2023-08-24T00:41:52;22.60;99.90
74869;DHT22;63419;42.262;12.210;2023-08-24T00:44:18;22.60;99.90
74869;DHT22;63419;42.262;12.210;2023-08-24T00:46:45;22.80;99.90
74869;DHT22;63419;42.262;12.210;2023-08-24T00:49:11;23.00;99.90
74869;DHT22;63419;42.262;12.210;2023-08-24T00:51:38;23.10;99.90
74869;DHT22;63419;42.262;12.210;2023-08-24T00:54:05;23.20;99.90
74869;DHT22;63419;42.262;12.210;2023-08-24T00:56:32;23.10;99.90
74869;DHT22;63419;42.262;12.210;2023-08-24T00:58:59;23.20;99.90
74869;DHT22;63419;42.262;12.210;2023-08-24T01:01:25;23.20;99.90
74869;DHT22;63419;42.262;12.210;2023-08-24T01:03:51;23.10;99.90
74869;DHT22;63419;42.262;12.210;2023-08-24T01:06:17;23.20;99.90
74869;DHT22;63419;42.262;12.210;2023-08-24T01:08:43;23.10;99.90
74869;DHT22;63419;42.262;12.210;2023-08-24T01:11:27;23.20;99.90
74869;DHT22;63419;42.262;12.210;2023-08-24T01:14:35;23.10;99.90
74869;DHT22;63419;42.262;12.210;2023-08-24T01:17:06;23.10;99.90
74869;DHT22;63419;42.262;12.210;2023-08-24T01:19:44;23.10;99.90
74869;DHT22;63419;42.262;12.210;2023-08-24T01:22:34;23.10;99.90
74869;DHT22;63419;42.262;12.210;2023-08-24T01:25:40;23.30;99.90
74869;DHT22;63419;42.262;12.210;2023-08-24T01:28:13;23.30;99.90
74869;DHT22;63419;42.262;12.210;2023-08-24T01:30:43;23.30;99.90
74869;DHT22;63419;42.262;12.210;2023-08-24T01:33:09;23.20;99.90
74869;DHT22;63419;42.262;12.210;2023-08-24T01:35:38;23.30;99.90
74869;DHT22;63419;42.262;12.210;2023-08-24T01:38:04;23.20;99.90
74869;DHT22;63419;42.262;12.210;2023-08-24T01:43:15;23.20;99.90
74869;DHT22;63419;42.262;12.210;2023-08-24T01:45:46;23.30;99.90
74869;DHT22;63419;42.262;12.210;2023-08-24T01:48:15;23.40;99.90
74869;DHT22;63419;42.262;12.210;2023-08-24T01:50:42;23.40;99.90
74869;DHT22;63419;42.262;12.210;2023-08-24T01:53:10;23.60;99.90
74869;DHT22;63419;42.262;12.210;2023-08-24T01:55:36;23.60;99.90
74869;DHT22;63419;42.262;12.210;2023-08-24T01:58:03;23.60;99.90
74869;DHT22;63419;42.262;12.210;2023-08-24T02:00:28;23.70;99.90
74869;DHT22;63419;42.262;12.210;2023-08-24T02:02:55;23.80;99.90
74869;DHT22;63419;42.262;12.210;2023-08-24T02:05:21;24.00;99.90
74869;DHT22;63419;42.262;12.210;2023-08-24T02:07:47;24.10;99.90
74869;DHT22;63419;42.262;12.210;2023-08-24T02:10:13;24.00;99.90
74869;DHT22;63419;42.262;12.210;2023-08-24T02:12:39;23.80;99.90
74869;DHT22;63419;42.262;12.210;2023-08-24T02:15:06;23.70;99.90
74869;DHT22;63419;42.262;12.210;2023-08-24T02:17:32;23.70;99.90
74869;DHT22;63419;42.262;12.210;2023-08-24T02:19:59;23.70;99.90
74869;DHT22;63419;42.262;12.210;2023-08-24T02:22:25;23.70;99.90
74869;DHT22;63419;42.262;12.210;2023-08-24T02:24:51;23.70;99.90
74869;DHT22;63419;42.262;12.210;2023-08-24T02:27:17;23.80;99.90
74869;DHT22;63419;42.262;12.210;2023-08-24T02:29:43;23.60;99.90
74869;DHT22;63419;42.262;12.210;2023-08-24T02:32:10;23.50;99.90
74869;DHT22;63419;42.262;12.210;2023-08-24T02:34:36;23.50;99.90
74869;DHT22;63419;42.262;12.210;2023-08-24T02:37:04;23.50;99.90
74869;DHT22;63419;42.262;12.210;2023-08-24T02:39:30;23.60;99.90
74869;DHT22;63419;42.262;12.210;2023-08-24T02:41:57;23.60;99.90
74869;DHT22;63419;42.262;12.210;2023-08-24T02:44:23;23.60;99.90
74869;DHT22;63419;42.262;12.210;2023-08-24T02:46:49;23.50;99.90
74869;DHT22;63419;42.262;12.210;2023-08-24T02:49:15;23.50;99.90
74869;DHT22;63419;42.262;12.210;2023-08-24T02:51:41;23.50;99.90
74869;DHT22;63419;42.262;12.210;2023-08-24T02:54:07;23.40;99.90
74869;DHT22;63419;42.262;12.210;2023-08-24T02:56:33;23.30;99.90
74869;DHT22;63419;42.262;12.210;2023-08-24T02:58:59;23.20;99.90
74869;DHT22;63419;42.262;12.210;2023-08-24T03:01:26;23.10;99.90
74869;DHT22;63419;42.262;12.210;2023-08-24T03:03:52;23.30;99.90
74869;DHT22;63419;42.262;12.210;2023-08-24T03:06:18;23.30;99.90
74869;DHT22;63419;42.262;12.210;2023-08-24T03:08:45;23.30;99.90
74869;DHT22;63419;42.262;12.210;2023-08-24T03:11:11;23.20;99.90
74869;DHT22;63419;42.262;12.210;2023-08-24T03:13:55;23.20;99.90
74869;DHT22;63419;42.262;12.210;2023-08-24T03:16:21;23.20;99.90
74869;DHT22;63419;42.262;12.210;2023-08-24T03:18:48;23.00;99.90
74869;DHT22;63419;42.262;12.210;2023-08-24T03:21:15;23.10;99.90
74869;DHT22;63419;42.262;12.210;2023-08-24T03:23:41;23.10;99.90
74869;DHT22;63419;42.262;12.210;2023-08-24T03:26:07;23.10;99.90
74869;DHT22;63419;42.262;12.210;2023-08-24T03:28:33;23.30;99.90
74869;DHT22;63419;42.262;12.210;2023-08-24T03:31:00;23.60;99.90
74869;DHT22;63419;42.262;12.210;2023-08-24T03:33:27;23.60;99.90
74869;DHT22;63419;42.262;12.210;2023-08-24T03:35:54;23.90;99.90
74869;DHT22;63419;42.262;12.210;2023-08-24T03:38:20;24.00;99.90
74869;DHT22;63419;42.262;12.210;2023-08-24T03:40:47;23.90;99.90
74869;DHT22;63419;42.262;12.210;2023-08-24T03:43:12;23.90;99.90
74869;DHT22;63419;42.262;12.210;2023-08-24T03:45:38;23.90;99.90
74869;DHT22;63419;42.262;12.210;2023-08-24T03:48:05;23.70;99.90
74869;DHT22;63419;42.262;12.210;2023-08-24T03:50:31;23.10;99.90
74869;DHT22;63419;42.262;12.210;2023-08-24T03:52:57;22.30;99.90
74869;DHT22;63419;42.262;12.210;2023-08-24T03:55:23;22.20;99.90
74869;DHT22;63419;42.262;12.210;2023-08-24T03:57:50;22.10;99.90
74869;DHT22;63419;42.262;12.210;2023-08-24T04:00:16;22.10;99.90
74869;DHT22;63419;42.262;12.210;2023-08-24T04:02:43;22.00;99.90
74869;DHT22;63419;42.262;12.210;2023-08-24T04:05:10;22.10;99.90
74869;DHT22;63419;42.262;12.210;2023-08-24T04:07:36;22.10;99.90
74869;DHT22;63419;42.262;12.210;2023-08-24T04:10:04;22.00;99.90
74869;DHT22;63419;42.262;12.210;2023-08-24T04:12:32;22.00;99.90
74869;DHT22;63419;42.262;12.210;2023-08-24T04:14:58;22.00;99.90
74869;DHT22;63419;42.262;12.210;2023-08-24T04:17:25;21.90;99.90
74869;DHT22;63419;42.262;12.210;2023-08-24T04:19:51;21.90;99.90
74869;DHT22;63419;42.262;12.210;2023-08-24T04:22:18;21.90;99.90
74869;DHT22;63419;42.262;12.210;2023-08-24T04:24:44;21.90;99.90
74869;DHT22;63419;42.262;12.210;2023-08-24T04:27:12;21.90;99.90
74869;DHT22;63419;42.262;12.210;2023-08-24T04:29:38;21.80;99.90
74869;DHT22;63419;42.262;12.210;2023-08-24T04:32:06;21.80;99.90
74869;DHT22;63419;42.262;12.210;2023-08-24T04:34:33;21.90;99.90
74869;DHT22;63419;42.262;12.210;2023-08-24T04:36:59;21.70;99.90
74869;DHT22;63419;42.262;12.210;2023-08-24T04:39:26;21.40;99.90
74869;DHT22;63419;42.262;12.210;2023-08-24T04:41:52;21.20;99.90
74869;DHT22;63419;42.262;12.210;2023-08-24T04:44:19;21.10;99.90
74869;DHT22;63419;42.262;12.210;2023-08-24T04:46:45;21.10;99.90
74869;DHT22;63419;42.262;12.210;2023-08-24T04:49:11;21.00;99.90
74869;DHT22;63419;42.262;12.210;2023-08-24T04:51:37;20.90;99.90
74869;DHT22;63419;42.262;12.210;2023-08-24T04:54:03;21.00;99.90
74869;DHT22;63419;42.262;12.210;2023-08-24T04:56:29;21.10;99.90
74869;DHT22;63419;42.262;12.210;2023-08-24T04:58:56;21.10;99.90
74869;DHT22;63419;42.262;12.210;2023-08-24T05:01:24;21.20;99.90
74869;DHT22;63419;42.262;12.210;2023-08-24T05:03:51;21.30;99.90
74869;DHT22;63419;42.262;12.210;2023-08-24T05:06:21;21.20;99.90
74869;DHT22;63419;42.262;12.210;2023-08-24T05:08:47;21.30;99.90
74869;DHT22;63419;42.262;12.210;2023-08-24T05:11:20;21.40;99.90
74869;DHT22;63419;42.262;12.210;2023-08-24T05:13:49;21.40;99.90
74869;DHT22;63419;42.262;12.210;2023-08-24T05:16:16;21.60;99.90
74869;DHT22;63419;42.262;12.210;2023-08-24T05:18:43;21.70;99.90
74869;DHT22;63419;42.262;12.210;2023-08-24T05:21:09;21.90;99.90
74869;DHT22;63419;42.262;12.210;2023-08-24T05:23:35;22.00;99.90
74869;DHT22;63419;42.262;12.210;2023-08-24T05:26:02;22.20;99.90
74869;DHT22;63419;42.262;12.210;2023-08-24T05:28:30;22.30;99.90
74869;DHT22;63419;42.262;12.210;2023-08-24T05:30:57;22.40;99.90
74869;DHT22;63419;42.262;12.210;2023-08-24T05:33:24;22.60;99.90
74869;DHT22;63419;42.262;12.210;2023-08-24T05:35:52;22.60;99.90
74869;DHT22;63419;42.262;12.210;2023-08-24T05:38:18;22.70;99.90
74869;DHT22;63419;42.262;12.210;2023-08-24T05:40:48;22.80;99.90
74869;DHT22;63419;42.262;12.210;2023-08-24T05:43:15;22.90;99.90
74869;DHT22;63419;42.262;12.210;2023-08-24T05:45:41;23.00;99.90
74869;DHT22;63419;42.262;12.210;2023-08-24T05:48:10;23.10;99.90
74869;DHT22;63419;42.262;12.210;2023-08-24T05:50:42;23.10;99.90
74869;DHT22;63419;42.262;12.210;2023-08-24T05:53:10;23.20;99.90
74869;DHT22;63419;42.262;12.210;2023-08-24T05:55:37;23.40;99.90
74869;DHT22;63419;42.262;12.210;2023-08-24T05:58:04;23.50;99.90
74869;DHT22;63419;42.262;12.210;2023-08-24T06:00:30;23.50;99.90
74869;DHT22;63419;42.262;12.210;2023-08-24T06:02:56;23.60;99.90
74869;DHT22;63419;42.262;12.210;2023-08-24T06:05:22;23.60;99.90
74869;DHT22;63419;42.262;12.210;2023-08-24T06:07:49;23.70;99.90
74869;DHT22;63419;42.262;12.210;2023-08-24T06:10:15;23.70;99.90
74869;DHT22;63419;42.262;12.210;2023-08-24T06:12:42;23.70;99.90
74869;DHT22;63419;42.262;12.210;2023-08-24T06:15:08;23.90;99.90
74869;DHT22;63419;42.262;12.210;2023-08-24T06:17:36;23.90;99.90
74869;DHT22;63419;42.262;12.210;2023-08-24T06:20:03;23.90;99.90
74869;DHT22;63419;42.262;12.210;2023-08-24T06:22:30;23.80;99.90
74869;DHT22;63419;42.262;12.210;2023-08-24T06:24:56;23.90;99.90
74869;DHT22;63419;42.262;12.210;2023-08-24T06:27:26;24.10;99.90
74869;DHT22;63419;42.262;12.210;2023-08-24T06:29:52;24.20;99.90
74869;DHT22;63419;42.262;12.210;2023-08-24T06:32:18;24.10;99.90
74869;DHT22;63419;42.262;12.210;2023-08-24T06:34:44;24.30;99.90
74869;DHT22;63419;42.262;12.210;2023-08-24T06:37:10;24.40;99.90
74869;DHT22;63419;42.262;12.210;2023-08-24T06:39:36;24.30;99.90
74869;DHT22;63419;42.262;12.210;2023-08-24T06:42:02;24.40;99.90
74869;DHT22;63419;42.262;12.210;2023-08-24T06:44:28;24.50;99.90
74869;DHT22;63419;42.262;12.210;2023-08-24T06:46:55;24.50;99.90
74869;DHT22;63419;42.262;12.210;2023-08-24T06:49:21;24.60;99.90
74869;DHT22;63419;42.262;12.210;2023-08-24T06:51:47;24.60;99.90
74869;DHT22;63419;42.262;12.210;2023-08-24T06:54:13;24.70;99.90
74869;DHT22;63419;42.262;12.210;2023-08-24T06:56:41;24.90;99.90
74869;DHT22;63419;42.262;12.210;2023-08-24T06:59:09;25.10;99.90
74869;DHT22;63419;42.262;12.210;2023-08-24T07:01:36;25.20;99.90
74869;DHT22;63419;42.262;12.210;2023-08-24T07:04:03;25.30;99.90
74869;DHT22;63419;42.262;12.210;2023-08-24T07:06:29;25.40;99.90
74869;DHT22;63419;42.262;12.210;2023-08-24T07:08:55;25.50;99.90
74869;DHT22;63419;42.262;12.210;2023-08-24T07:11:21;25.70;99.90
74869;DHT22;63419;42.262;12.210;2023-08-24T07:13:49;25.80;99.90
74869;DHT22;63419;42.262;12.210;2023-08-24T07:16:15;26.00;99.90
74869;DHT22;63419;42.262;12.210;2023-08-24T07:18:41;26.10;99.90
74869;DHT22;63419;42.262;12.210;2023-08-24T07:21:08;26.20;99.90
74869;DHT22;63419;42.262;12.210;2023-08-24T07:23:34;26.30;99.90
74869;DHT22;63419;42.262;12.210;2023-08-24T07:26:00;26.30;99.90
74869;DHT22;63419;42.262;12.210;2023-08-24T07:28:26;26.50;99.90
74869;DHT22;63419;42.262;12.210;2023-08-24T07:30:52;26.60;99.90
74869;DHT22;63419;42.262;12.210;2023-08-24T07:33:21;26.80;99.90
74869;DHT22;63419;42.262;12.210;2023-08-24T07:35:47;26.90;99.90
74869;DHT22;63419;42.262;12.210;2023-08-24T07:38:14;27.10;99.90
74869;DHT22;63419;42.262;12.210;2023-08-24T07:40:40;27.30;99.90
74869;DHT22;63419;42.262;12.210;2023-08-24T07:43:06;27.60;99.90
74869;DHT22;63419;42.262;12.210;2023-08-24T07:45:33;27.80;99.90
74869;DHT22;63419;42.262;12.210;2023-08-24T07:47:59;28.10;99.90
74869;DHT22;63419;42.262;12.210;2023-08-24T07:50:26;28.30;99.90
74869;DHT22;63419;42.262;12.210;2023-08-24T07:52:52;28.50;99.90
74869;DHT22;63419;42.262;12.210;2023-08-24T07:55:18;28.60;99.90
74869;DHT22;63419;42.262;12.210;2023-08-24T07:58:03;28.90;99.90
74869;DHT22;63419;42.262;12.210;2023-08-24T08:00:29;28.90;99.90
74869;DHT22;63419;42.262;12.210;2023-08-24T08:02:55;29.00;99.90
74869;DHT22;63419;42.262;12.210;2023-08-24T08:05:21;28.90;99.90
74869;DHT22;63419;42.262;12.210;2023-08-24T08:07:48;28.90;99.90
74869;DHT22;63419;42.262;12.210;2023-08-24T08:10:14;29.10;99.90
74869;DHT22;63419;42.262;12.210;2023-08-24T08:12:43;29.20;99.90
74869;DHT22;63419;42.262;12.210;2023-08-24T08:15:09;29.30;99.90
74869;DHT22;63419;42.262;12.210;2023-08-24T08:17:35;29.10;99.90
74869;DHT22;63419;42.262;12.210;2023-08-24T08:20:01;29.20;99.90
74869;DHT22;63419;42.262;12.210;2023-08-24T08:22:29;29.10;99.90
74869;DHT22;63419;42.262;12.210;2023-08-24T08:24:55;29.40;99.90
74869;DHT22;63419;42.262;12.210;2023-08-24T08:27:22;29.50;99.90
74869;DHT22;63419;42.262;12.210;2023-08-24T08:29:50;29.50;99.90
74869;DHT22;63419;42.262;12.210;2023-08-24T08:32:16;29.20;99.90
74869;DHT22;63419;42.262;12.210;2023-08-24T08:34:42;29.10;99.90
74869;DHT22;63419;42.262;12.210;2023-08-24T08:37:09;28.90;99.90
74869;DHT22;63419;42.262;12.210;2023-08-24T08:39:35;29.10;99.90
74869;DHT22;63419;42.262;12.210;2023-08-24T08:42:01;29.40;99.90
74869;DHT22;63419;42.262;12.210;2023-08-24T08:44:30;29.70;99.90
74869;DHT22;63419;42.262;12.210;2023-08-24T08:46:57;29.40;99.90
74869;DHT22;63419;42.262;12.210;2023-08-24T08:49:23;29.50;99.90
74869;DHT22;63419;42.262;12.210;2023-08-24T08:51:51;29.50;99.90
74869;DHT22;63419;42.262;12.210;2023-08-24T08:54:18;29.70;99.90
74869;DHT22;63419;42.262;12.210;2023-08-24T08:56:44;29.80;99.90
74869;DHT22;63419;42.262;12.210;2023-08-24T08:59:14;30.20;99.90
74869;DHT22;63419;42.262;12.210;2023-08-24T09:01:41;30.20;99.90
74869;DHT22;63419;42.262;12.210;2023-08-24T09:04:11;30.20;99.90
74869;DHT22;63419;42.262;12.210;2023-08-24T09:06:38;30.00;99.90
74869;DHT22;63419;42.262;12.210;2023-08-24T09:09:04;30.20;99.90
74869;DHT22;63419;42.262;12.210;2023-08-24T09:11:31;30.50;99.90
74869;DHT22;63419;42.262;12.210;2023-08-24T09:13:57;30.50;99.90
74869;DHT22;63419;42.262;12.210;2023-08-24T09:16:23;30.80;99.90
74869;DHT22;63419;42.262;12.210;2023-08-24T09:18:55;30.80;99.90
74869;DHT22;63419;42.262;12.210;2023-08-24T09:21:23;31.10;99.90
74869;DHT22;63419;42.262;12.210;2023-08-24T09:23:55;30.90;99.90
74869;DHT22;63419;42.262;12.210;2023-08-24T09:26:32;31.30;99.90
74869;DHT22;63419;42.262;12.210;2023-08-24T09:29:12;31.20;99.90
74869;DHT22;63419;42.262;12.210;2023-08-24T09:31:42;32.00;99.90
74869;DHT22;63419;42.262;12.210;2023-08-24T09:34:10;32.40;99.90
74869;DHT22;63419;42.262;12.210;2023-08-24T09:36:38;32.90;99.10
74869;DHT22;63419;42.262;12.210;2023-08-24T09:39:05;33.20;98.80
74869;DHT22;63419;42.262;12.210;2023-08-24T09:41:44;33.50;98.60
74869;DHT22;63419;42.262;12.210;2023-08-24T09:44:11;33.30;97.90
74869;DHT22;63419;42.262;12.210;2023-08-24T09:46:38;32.90;98.20
74869;DHT22;63419;42.262;12.210;2023-08-24T09:49:08;32.90;99.20
74869;DHT22;63419;42.262;12.210;2023-08-24T09:51:36;32.70;98.30
74869;DHT22;63419;42.262;12.210;2023-08-24T09:54:06;33.30;98.40
74869;DHT22;63419;42.262;12.210;2023-08-24T09:56:36;32.60;99.00
74869;DHT22;63419;42.262;12.210;2023-08-24T09:59:10;32.70;98.00
74869;DHT22;63419;42.262;12.210;2023-08-24T10:01:42;33.10;97.60
74869;DHT22;63419;42.262;12.210;2023-08-24T10:04:10;33.80;97.80
74869;DHT22;63419;42.262;12.210;2023-08-24T10:06:39;33.70;97.30
74869;DHT22;63419;42.262;12.210;2023-08-24T10:09:08;33.00;97.50
74869;DHT22;63419;42.262;12.210;2023-08-24T10:11:46;32.30;97.60
74869;DHT22;63419;42.262;12.210;2023-08-24T10:14:27;32.90;97.40
74869;DHT22;63419;42.262;12.210;2023-08-24T10:16:58;33.90;97.50
74869;DHT22;63419;42.262;12.210;2023-08-24T10:19:24;33.90;96.30
74869;DHT22;63419;42.262;12.210;2023-08-24T10:21:53;33.70;96.60
74869;DHT22;63419;42.262;12.210;2023-08-24T10:24:22;34.00;96.50
74869;DHT22;63419;42.262;12.210;2023-08-24T10:26:50;34.50;95.70
74869;DHT22;63419;42.262;12.210;2023-08-24T10:29:17;34.10;95.30
74869;DHT22;63419;42.262;12.210;2023-08-24T10:31:45;33.70;95.50
74869;DHT22;63419;42.262;12.210;2023-08-24T10:34:13;35.30;95.10
74869;DHT22;63419;42.262;12.210;2023-08-24T10:36:39;36.00;93.40
74869;DHT22;63419;42.262;12.210;2023-08-24T10:39:06;36.50;93.30
74869;DHT22;63419;42.262;12.210;2023-08-24T10:41:52;37.00;92.20
74869;DHT22;63419;42.262;12.210;2023-08-24T10:44:23;36.80;92.20
74869;DHT22;63419;42.262;12.210;2023-08-24T10:52:31;33.60;92.90
74869;DHT22;63419;42.262;12.210;2023-08-24T10:55:03;33.90;94.70
74869;DHT22;63419;42.262;12.210;2023-08-24T10:57:39;33.90;94.40
74869;DHT22;63419;42.262;12.210;2023-08-24T11:00:08;35.60;93.80
74869;DHT22;63419;42.262;12.210;2023-08-24T11:02:56;35.90;92.90
74869;DHT22;63419;42.262;12.210;2023-08-24T11:05:26;35.20;92.60
74869;DHT22;63419;42.262;12.210;2023-08-24T11:07:58;35.70;93.20
74869;DHT22;63419;42.262;12.210;2023-08-24T11:10:34;38.20;92.50
74869;DHT22;63419;42.262;12.210;2023-08-24T11:13:14;40.00;90.40
74869;DHT22;63419;42.262;12.210;2023-08-24T11:15:46;40.90;88.50
74869;DHT22;63419;42.262;12.210;2023-08-24T11:23:37;36.50;90.80
74869;DHT22;63419;42.262;12.210;2023-08-24T11:26:04;36.00;91.40
74869;DHT22;63419;42.262;12.210;2023-08-24T11:28:31;37.30;90.00
74869;DHT22;63419;42.262;12.210;2023-08-24T11:30:58;37.90;89.60
74869;DHT22;63419;42.262;12.210;2023-08-24T11:33:30;37.60;88.00
74869;DHT22;63419;42.262;12.210;2023-08-24T11:36:00;38.20;87.00
74869;DHT22;63419;42.262;12.210;2023-08-24T11:38:43;36.80;89.00
74869;DHT22;63419;42.262;12.210;2023-08-24T11:41:13;38.20;85.90
74869;DHT22;63419;42.262;12.210;2023-08-24T11:43:41;38.10;84.90
74869;DHT22;63419;42.262;12.210;2023-08-24T11:46:08;37.60;85.80
74869;DHT22;63419;42.262;12.210;2023-08-24T11:48:35;39.60;84.00
74869;DHT22;63419;42.262;12.210;2023-08-24T11:51:03;37.70;84.20
74869;DHT22;63419;42.262;12.210;2023-08-24T11:53:30;38.00;84.50
74869;DHT22;63419;42.262;12.210;2023-08-24T11:55:58;38.50;83.00
74869;DHT22;63419;42.262;12.210;2023-08-24T11:58:25;36.50;87.40
74869;DHT22;63419;42.262;12.210;2023-08-24T12:00:52;35.80;88.50
74869;DHT22;63419;42.262;12.210;2023-08-24T12:03:21;36.30;87.60
74869;DHT22;63419;42.262;12.210;2023-08-24T12:05:48;37.20;86.70
74869;DHT22;63419;42.262;12.210;2023-08-24T12:08:14;38.80;85.30
74869;DHT22;63419;42.262;12.210;2023-08-24T12:10:43;40.90;81.60
74869;DHT22;63419;42.262;12.210;2023-08-24T12:13:11;43.20;80.90
74869;DHT22;63419;42.262;12.210;2023-08-24T12:15:38;39.60;81.50
74869;DHT22;63419;42.262;12.210;2023-08-24T12:18:10;36.40;84.40
74869;DHT22;63419;42.262;12.210;2023-08-24T12:20:39;38.30;81.20
74869;DHT22;63419;42.262;12.210;2023-08-24T12:23:07;39.50;80.70
74869;DHT22;63419;42.262;12.210;2023-08-24T12:25:37;37.50;81.00
74869;DHT22;63419;42.262;12.210;2023-08-24T12:28:13;36.70;83.30
74869;DHT22;63419;42.262;12.210;2023-08-24T12:30:49;37.80;82.20
74869;DHT22;63419;42.262;12.210;2023-08-24T12:33:36;38.70;80.90
74869;DHT22;63419;42.262;12.210;2023-08-24T12:36:02;40.20;78.90
74869;DHT22;63419;42.262;12.210;2023-08-24T12:38:28;41.50;77.20
74869;DHT22;63419;42.262;12.210;2023-08-24T12:40:54;38.60;79.20
74869;DHT22;63419;42.262;12.210;2023-08-24T12:43:21;38.00;79.90
74869;DHT22;63419;42.262;12.210;2023-08-24T12:45:47;39.00;81.70
74869;DHT22;63419;42.262;12.210;2023-08-24T12:48:14;39.70;78.30
74869;DHT22;63419;42.262;12.210;2023-08-24T12:50:41;38.50;79.90
74869;DHT22;63419;42.262;12.210;2023-08-24T12:53:07;38.80;85.50
74869;DHT22;63419;42.262;12.210;2023-08-24T12:55:34;37.90;89.90
74869;DHT22;63419;42.262;12.210;2023-08-24T12:58:02;39.00;89.00
74869;DHT22;63419;42.262;12.210;2023-08-24T13:00:29;41.00;86.10
74869;DHT22;63419;42.262;12.210;2023-08-24T13:02:56;42.00;84.70
74869;DHT22;63419;42.262;12.210;2023-08-24T13:05:23;38.70;84.90
74869;DHT22;63419;42.262;12.210;2023-08-24T13:07:50;38.30;87.30
74869;DHT22;63419;42.262;12.210;2023-08-24T13:10:17;36.90;85.00
74869;DHT22;63419;42.262;12.210;2023-08-24T13:12:43;36.40;89.90
74869;DHT22;63419;42.262;12.210;2023-08-24T13:15:10;36.40;90.50
74869;DHT22;63419;42.262;12.210;2023-08-24T13:17:38;36.80;84.30
74869;DHT22;63419;42.262;12.210;2023-08-24T13:20:05;35.80;89.70
74869;DHT22;63419;42.262;12.210;2023-08-24T13:22:32;35.00;90.50
74869;DHT22;63419;42.262;12.210;2023-08-24T13:24:58;35.00;90.30
74869;DHT22;63419;42.262;12.210;2023-08-24T13:27:25;35.80;90.30
74869;DHT22;63419;42.262;12.210;2023-08-24T13:29:51;35.50;89.30
74869;DHT22;63419;42.262;12.210;2023-08-24T13:32:22;35.10;90.10
74869;DHT22;63419;42.262;12.210;2023-08-24T13:34:48;35.60;91.20
74869;DHT22;63419;42.262;12.210;2023-08-24T13:37:15;36.30;90.20
74869;DHT22;63419;42.262;12.210;2023-08-24T13:39:41;35.00;90.80
74869;DHT22;63419;42.262;12.210;2023-08-24T13:42:07;35.20;90.90
74869;DHT22;63419;42.262;12.210;2023-08-24T13:47:19;35.50;90.50
74869;DHT22;63419;42.262;12.210;2023-08-24T13:49:47;35.00;91.30
74869;DHT22;63419;42.262;12.210;2023-08-24T13:52:14;36.30;89.90
74869;DHT22;63419;42.262;12.210;2023-08-24T13:54:42;36.60;89.90
74869;DHT22;63419;42.262;12.210;2023-08-24T13:57:09;37.20;88.70
74869;DHT22;63419;42.262;12.210;2023-08-24T14:02:22;35.40;91.60
74869;DHT22;63419;42.262;12.210;2023-08-24T14:04:49;34.90;90.50
74869;DHT22;63419;42.262;12.210;2023-08-24T14:07:15;35.20;90.80
74869;DHT22;63419;42.262;12.210;2023-08-24T14:09:41;35.10;91.40
74869;DHT22;63419;42.262;12.210;2023-08-24T14:12:08;36.20;90.10
74869;DHT22;63419;42.262;12.210;2023-08-24T14:14:34;36.60;90.20
74869;DHT22;63419;42.262;12.210;2023-08-24T14:17:00;36.10;90.30
74869;DHT22;63419;42.262;12.210;2023-08-24T14:19:27;34.60;91.30
74869;DHT22;63419;42.262;12.210;2023-08-24T14:21:53;34.40;91.10
74869;DHT22;63419;42.262;12.210;2023-08-24T14:24:20;34.70;91.20
74869;DHT22;63419;42.262;12.210;2023-08-24T14:26:47;35.80;90.70
74869;DHT22;63419;42.262;12.210;2023-08-24T14:29:14;36.10;90.50
74869;DHT22;63419;42.262;12.210;2023-08-24T14:32:00;35.60;90.80
74869;DHT22;63419;42.262;12.210;2023-08-24T14:34:26;34.90;90.90
74869;DHT22;63419;42.262;12.210;2023-08-24T14:36:53;34.40;91.70
74869;DHT22;63419;42.262;12.210;2023-08-24T14:39:19;34.40;91.90
74869;DHT22;63419;42.262;12.210;2023-08-24T14:41:46;34.60;91.90
74869;DHT22;63419;42.262;12.210;2023-08-24T14:44:12;35.10;91.40
74869;DHT22;63419;42.262;12.210;2023-08-24T14:46:38;35.80;90.70
74869;DHT22;63419;42.262;12.210;2023-08-24T14:49:05;35.10;91.00
74869;DHT22;63419;42.262;12.210;2023-08-24T14:51:31;34.90;91.10
74869;DHT22;63419;42.262;12.210;2023-08-24T14:53:58;34.50;91.30
74869;DHT22;63419;42.262;12.210;2023-08-24T14:56:25;34.10;91.30
74869;DHT22;63419;42.262;12.210;2023-08-24T14:59:10;34.80;91.10
74869;DHT22;63419;42.262;12.210;2023-08-24T15:01:36;34.60;91.60
74869;DHT22;63419;42.262;12.210;2023-08-24T15:04:06;34.30;91.80
74869;DHT22;63419;42.262;12.210;2023-08-24T15:06:32;34.40;90.70
74869;DHT22;63419;42.262;12.210;2023-08-24T15:09:01;34.10;90.80
74869;DHT22;63419;42.262;12.210;2023-08-24T15:11:27;34.10;90.70
74869;DHT22;63419;42.262;12.210;2023-08-24T15:13:53;34.60;90.60
74869;DHT22;63419;42.262;12.210;2023-08-24T15:16:19;34.50;90.80
74869;DHT22;63419;42.262;12.210;2023-08-24T15:18:46;34.60;90.80
74869;DHT22;63419;42.262;12.210;2023-08-24T15:21:12;35.20;90.90
74869;DHT22;63419;42.262;12.210;2023-08-24T15:23:40;34.50;90.80
74869;DHT22;63419;42.262;12.210;2023-08-24T15:26:06;35.20;90.50
74869;DHT22;63419;42.262;12.210;2023-08-24T15:28:37;34.50;90.70
74869;DHT22;63419;42.262;12.210;2023-08-24T15:31:24;34.10;91.10
74869;DHT22;63419;42.262;12.210;2023-08-24T15:33:50;34.20;91.20
74869;DHT22;63419;42.262;12.210;2023-08-24T15:36:16;34.40;91.10
74869;DHT22;63419;42.262;12.210;2023-08-24T15:38:43;33.60;92.20